Time;durP1;ratioP1;P1;durP2;ratioP2;P2;SDS_P1;SDS_P2;PMS_P1;PMS_P2;Temp;Humidity;BMP_temperature;BMP_pressure;BME280_temperature;BME280_humidity;BME280_pressure;Samples;Min_cycle;Max_cycle;Signal;HPM_P1;HPM_P2
2021/03/22 00:00:37;;;;;;;23.30;7.50;;;6.30;99.30;;;;;;5071508;28;20212;-63
2021/03/22 00:03:05;;;;;;;25.77;8.53;;;6.20;99.30;;;;;;5072555;28;20205;-63
2021/03/22 00:05:32;;;;;;;27.23;8.93;;;6.20;99.30;;;;;;5072338;28;20240;-63
2021/03/22 00:07:58;;;;;;;22.93;7.60;;;6.20;99.50;;;;;;5072247;28;20205;-63
2021/03/22 00:10:26;;;;;;;22.03;7.87;;;6.10;99.50;;;;;;5072397;28;20672;-63
2021/03/22 00:12:54;;;;;;;22.73;7.90;;;6.10;99.50;;;;;;5072390;28;20216;-62
2021/03/22 00:15:21;;;;;;;22.43;7.97;;;6.10;99.50;;;;;;5072090;28;20311;-63
2021/03/22 00:17:48;;;;;;;26.47;7.70;;;6.20;99.50;;;;;;5072425;28;20204;-63
2021/03/22 00:20:16;;;;;;;21.37;7.83;;;6.20;99.50;;;;;;5071965;28;20205;-63
2021/03/22 00:22:42;;;;;;;30.30;8.27;;;6.20;99.50;;;;;;5072409;28;20216;-63
2021/03/22 00:25:10;;;;;;;22.50;7.93;;;6.20;99.50;;;;;;5071907;28;20255;-63
2021/03/22 00:27:36;;;;;;;23.50;8.33;;;6.20;99.50;;;;;;5072420;28;20281;-62
2021/03/22 00:30:04;;;;;;;21.27;8.00;;;6.20;99.50;;;;;;5072139;28;20227;-62
2021/03/22 00:32:30;;;;;;;20.97;8.03;;;6.30;99.40;;;;;;5072056;28;20213;-63
2021/03/22 00:34:56;;;;;;;23.27;8.13;;;6.30;99.40;;;;;;5071648;28;20229;-63
2021/03/22 00:37:23;;;;;;;28.50;7.70;;;6.30;99.30;;;;;;5071694;28;20208;-62
2021/03/22 00:39:50;;;;;;;20.33;7.80;;;6.30;99.20;;;;;;5071734;28;20201;-62
2021/03/22 00:42:16;;;;;;;23.27;8.13;;;6.40;99.20;;;;;;5072229;28;20209;-63
2021/03/22 00:44:42;;;;;;;22.60;7.93;;;6.30;99.20;;;;;;5071824;28;20467;-63
2021/03/22 00:47:08;;;;;;;23.87;7.83;;;6.30;99.20;;;;;;5072025;28;20205;-63
2021/03/22 00:49:35;;;;;;;24.43;8.07;;;6.30;99.20;;;;;;5072052;28;20231;-63
2021/03/22 00:52:01;;;;;;;23.27;7.07;;;6.30;99.10;;;;;;5072071;28;20236;-63
2021/03/22 00:54:28;;;;;;;22.80;6.50;;;6.30;99.10;;;;;;5072029;28;20212;-63
2021/03/22 00:56:54;;;;;;;22.73;7.33;;;6.30;99.10;;;;;;5072013;28;20208;-62
2021/03/22 00:59:20;;;;;;;23.50;7.37;;;6.30;99.10;;;;;;5072054;28;20556;-63
2021/03/22 01:01:47;;;;;;;20.33;6.47;;;6.30;99.10;;;;;;5072000;28;20219;-63
2021/03/22 01:04:13;;;;;;;19.50;6.87;;;6.40;99.10;;;;;;5071026;28;20201;-63
2021/03/22 01:06:39;;;;;;;19.33;6.60;;;6.40;99.00;;;;;;5071558;28;20229;-63
2021/03/22 01:09:06;;;;;;;20.27;6.60;;;6.40;98.90;;;;;;5071257;28;20668;-63
2021/03/22 01:11:33;;;;;;;20.83;6.07;;;6.40;98.80;;;;;;5071327;28;20650;-63
2021/03/22 01:14:00;;;;;;;20.03;6.67;;;6.40;98.80;;;;;;5071247;28;20212;-62
2021/03/22 01:16:28;;;;;;;24.40;6.40;;;6.40;98.80;;;;;;5071471;28;20221;-63
2021/03/22 01:18:57;;;;;;;19.57;6.80;;;6.40;98.80;;;;;;5071289;28;20258;-62
2021/03/22 01:21:27;;;;;;;26.83;6.90;;;6.40;98.90;;;;;;5071438;28;20242;-63
2021/03/22 01:23:53;;;;;;;21.70;6.37;;;6.40;98.80;;;;;;5071327;28;20201;-63
2021/03/22 01:26:23;;;;;;;20.57;6.37;;;6.50;98.80;;;;;;5071292;28;20292;-63
2021/03/22 01:28:50;;;;;;;19.90;6.50;;;6.50;98.80;;;;;;5070839;28;20215;-63
2021/03/22 01:31:17;;;;;;;25.07;7.13;;;6.50;98.50;;;;;;5071488;28;20247;-62
2021/03/22 01:33:44;;;;;;;22.47;6.50;;;6.50;98.50;;;;;;5071336;28;20240;-62
2021/03/22 01:36:13;;;;;;;27.93;7.20;;;6.50;98.50;;;;;;5071746;28;20712;-62
2021/03/22 01:38:40;;;;;;;17.13;6.17;;;6.50;98.40;;;;;;5071987;28;20209;-62
2021/03/22 01:41:29;;;;;;;25.50;7.07;;;6.50;98.40;;;;;;5071332;28;20209;-62
2021/03/22 01:44:16;;;;;;;25.77;6.37;;;6.50;98.30;;;;;;5070962;28;20615;-62
2021/03/22 01:46:44;;;;;;;18.57;6.93;;;6.50;98.30;;;;;;5071323;28;20225;-62
2021/03/22 01:49:11;;;;;;;23.10;6.50;;;6.50;98.30;;;;;;5071073;28;20208;-62
2021/03/22 01:51:37;;;;;;;20.80;6.97;;;6.50;98.30;;;;;;5070912;28;20204;-62
2021/03/22 01:54:06;;;;;;;23.77;6.93;;;6.50;98.30;;;;;;5070847;28;20610;-63
2021/03/22 01:56:40;;;;;;;24.40;6.50;;;6.50;98.30;;;;;;5070914;28;20236;-62
2021/03/22 01:59:06;;;;;;;23.93;6.27;;;6.40;98.30;;;;;;5070918;28;20209;-63
2021/03/22 02:01:33;;;;;;;20.03;6.63;;;6.40;98.30;;;;;;5070943;28;20204;-62
2021/03/22 02:04:00;;;;;;;15.87;5.77;;;6.40;98.20;;;;;;5070887;28;20212;-62
2021/03/22 02:06:27;;;;;;;21.03;6.27;;;6.40;98.20;;;;;;5070872;28;20233;-62
2021/03/22 02:08:55;;;;;;;24.97;6.33;;;6.40;98.10;;;;;;5070839;28;20201;-63
2021/03/22 02:11:23;;;;;;;20.37;5.80;;;6.50;98.10;;;;;;5070863;28;20718;-63
2021/03/22 02:13:50;;;;;;;18.70;5.70;;;6.50;98.00;;;;;;5071176;28;20657;-62
2021/03/22 02:16:22;;;;;;;18.83;5.30;;;6.50;98.00;;;;;;5070841;28;20259;-62
2021/03/22 02:19:01;;;;;;;20.63;5.80;;;6.50;97.90;;;;;;5070703;28;20209;-63
2021/03/22 02:22:07;;;;;;;19.40;5.63;;;6.60;98.00;;;;;;5070895;28;20691;-63
2021/03/22 02:25:03;;;;;;;18.97;5.00;;;6.60;97.90;;;;;;5075313;28;20243;-63
2021/03/22 02:28:14;;;;;;;22.87;5.80;;;6.60;97.80;;;;;;5075892;28;20201;-63
2021/03/22 02:31:06;;;;;;;18.13;5.20;;;6.70;97.70;;;;;;5074169;28;20204;-62
2021/03/22 02:34:07;;;;;;;14.83;5.00;;;6.60;97.60;;;;;;5073828;28;20205;-63
2021/03/22 02:36:45;;;;;;;21.27;5.90;;;6.60;97.60;;;;;;5073764;28;20224;-63
2021/03/22 02:39:11;;;;;;;20.77;6.10;;;6.70;97.60;;;;;;5073596;28;20209;-62
2021/03/22 02:41:42;;;;;;;17.17;5.07;;;6.70;97.50;;;;;;5074059;28;20213;-62
2021/03/22 02:44:11;;;;;;;22.47;4.93;;;6.70;97.40;;;;;;5073493;28;20694;-63
2021/03/22 02:46:38;;;;;;;16.77;4.87;;;6.70;97.10;;;;;;5073611;28;20327;-63
2021/03/22 02:49:10;;;;;;;18.97;4.53;;;6.60;97.10;;;;;;5073534;28;20209;-62
2021/03/22 02:51:52;;;;;;;22.03;5.47;;;6.70;97.10;;;;;;5073615;28;20220;-63
2021/03/22 02:54:26;;;;;;;20.03;5.50;;;6.70;97.10;;;;;;5073408;28;20216;-62
2021/03/22 02:56:57;;;;;;;15.27;5.03;;;6.70;97.10;;;;;;5073595;28;20228;-62
2021/03/22 02:59:28;;;;;;;21.20;4.77;;;6.70;97.10;;;;;;5073516;28;20212;-64
2021/03/22 03:01:59;;;;;;;20.93;4.80;;;6.70;96.80;;;;;;5073617;28;20723;-62
2021/03/22 03:04:27;;;;;;;20.80;4.67;;;6.70;96.70;;;;;;5073438;28;20262;-63
2021/03/22 03:06:56;;;;;;;19.10;4.17;;;6.70;96.60;;;;;;5073577;28;20229;-62
2021/03/22 03:09:25;;;;;;;20.50;4.13;;;6.70;96.50;;;;;;5073533;28;20241;-62
2021/03/22 03:11:52;;;;;;;10.50;3.90;;;6.60;96.20;;;;;;5073296;28;20205;-62
2021/03/22 03:14:19;;;;;;;15.10;3.83;;;6.60;96.10;;;;;;5074402;28;20278;-62
2021/03/22 03:16:45;;;;;;;18.03;4.30;;;6.60;95.60;;;;;;5073855;28;20225;-62
2021/03/22 03:19:12;;;;;;;15.10;4.43;;;6.50;95.70;;;;;;5073773;28;20255;-62
2021/03/22 03:21:39;;;;;;;12.20;3.27;;;6.50;95.70;;;;;;5074249;28;20204;-62
2021/03/22 03:24:07;;;;;;;19.67;4.13;;;6.60;95.30;;;;;;5073994;28;20390;-62
2021/03/22 03:26:33;;;;;;;16.77;3.73;;;6.50;95.00;;;;;;5073130;28;20229;-62
2021/03/22 03:28:59;;;;;;;16.20;3.97;;;6.50;95.00;;;;;;5073305;28;20196;-62
2021/03/22 03:31:26;;;;;;;14.40;3.63;;;6.40;95.10;;;;;;5073604;28;20254;-63
2021/03/22 03:33:52;;;;;;;15.53;3.77;;;6.50;94.90;;;;;;5072845;28;20589;-62
2021/03/22 03:36:19;;;;;;;13.50;3.50;;;6.40;94.70;;;;;;5072505;28;20229;-62
2021/03/22 03:38:46;;;;;;;13.83;3.70;;;6.40;94.70;;;;;;5074108;28;20209;-62
2021/03/22 03:41:12;;;;;;;18.40;3.97;;;6.40;94.60;;;;;;5073368;28;20201;-62
2021/03/22 03:43:38;;;;;;;11.27;3.20;;;6.40;94.50;;;;;;5073230;28;20212;-62
2021/03/22 03:46:04;;;;;;;13.80;3.83;;;6.40;94.20;;;;;;5073242;28;20633;-62
2021/03/22 03:48:30;;;;;;;12.57;3.37;;;6.30;94.10;;;;;;5073129;28;20209;-62
2021/03/22 03:51:00;;;;;;;20.50;3.87;;;6.30;94.30;;;;;;5073223;28;20205;-62
2021/03/22 03:53:27;;;;;;;14.47;3.33;;;6.40;94.00;;;;;;5073299;28;20588;-61
2021/03/22 03:55:56;;;;;;;11.37;3.43;;;6.30;93.90;;;;;;5072940;28;20225;-62
2021/03/22 03:58:22;;;;;;;11.37;2.77;;;6.20;93.90;;;;;;5073500;28;20205;-62
2021/03/22 04:00:49;;;;;;;16.57;4.40;;;6.20;93.90;;;;;;5073412;28;20201;-62
2021/03/22 04:03:23;;;;;;;11.43;3.43;;;6.20;93.90;;;;;;5073407;28;20250;-62
2021/03/22 04:05:55;;;;;;;13.10;3.27;;;6.20;93.60;;;;;;5072633;28;20228;-62
2021/03/22 04:08:21;;;;;;;18.37;3.37;;;6.20;93.60;;;;;;5072812;28;20209;-62
2021/03/22 04:10:48;;;;;;;13.50;3.27;;;6.30;93.80;;;;;;5073592;28;20215;-62
2021/03/22 04:13:16;;;;;;;12.90;3.00;;;6.10;93.90;;;;;;5073075;28;20251;-62
2021/03/22 04:15:42;;;;;;;14.37;3.20;;;6.10;93.80;;;;;;5072346;28;20731;-62
2021/03/22 04:18:08;;;;;;;15.47;3.27;;;6.20;93.80;;;;;;5072291;28;20396;-62
2021/03/22 04:20:34;;;;;;;16.10;4.00;;;6.30;93.20;;;;;;5072289;28;20664;-61
2021/03/22 04:23:00;;;;;;;12.83;3.13;;;6.30;93.30;;;;;;5071824;28;20259;-62
2021/03/22 04:25:26;;;;;;;12.27;3.20;;;6.40;93.20;;;;;;5071755;28;20692;-62
2021/03/22 04:27:53;;;;;;;16.80;3.63;;;6.40;93.00;;;;;;5071954;28;20205;-62
2021/03/22 04:30:22;;;;;;;18.60;3.73;;;6.40;92.80;;;;;;5072123;28;20261;-62
2021/03/22 04:32:49;;;;;;;14.10;3.40;;;6.40;92.80;;;;;;5072179;28;20204;-62
2021/03/22 04:35:15;;;;;;;13.37;3.00;;;6.50;92.90;;;;;;5072622;28;20283;-61
2021/03/22 04:37:41;;;;;;;17.87;3.70;;;6.50;92.70;;;;;;5071903;28;20209;-62
2021/03/22 04:40:09;;;;;;;12.40;2.93;;;6.60;92.70;;;;;;5071679;28;20633;-62
2021/03/22 04:42:35;;;;;;;16.57;3.07;;;6.60;92.80;;;;;;5071727;28;20204;-62
2021/03/22 04:45:01;;;;;;;14.07;2.67;;;6.60;92.80;;;;;;5071888;28;20773;-62
2021/03/22 04:47:28;;;;;;;15.30;3.53;;;6.60;92.90;;;;;;5071594;28;20231;-62
2021/03/22 04:49:55;;;;;;;11.90;3.30;;;6.70;92.90;;;;;;5071651;28;20211;-62
2021/03/22 04:52:21;;;;;;;12.10;3.30;;;6.70;92.90;;;;;;5071862;28;20205;-62
2021/03/22 04:54:47;;;;;;;15.23;3.10;;;6.70;93.00;;;;;;5071636;28;20585;-61
2021/03/22 04:57:23;;;;;;;13.07;3.20;;;6.70;93.00;;;;;;5071734;28;20201;-62
2021/03/22 04:59:50;;;;;;;13.27;3.47;;;6.70;93.00;;;;;;5071734;28;20235;-61
2021/03/22 05:02:16;;;;;;;11.73;3.73;;;6.80;93.00;;;;;;5072084;28;20205;-62
2021/03/22 05:04:43;;;;;;;12.30;3.47;;;6.70;93.10;;;;;;5071126;28;20216;-62
2021/03/22 05:07:09;;;;;;;11.07;3.70;;;6.70;93.20;;;;;;5072034;28;20225;-62
2021/03/22 05:09:36;;;;;;;12.10;3.90;;;6.70;93.30;;;;;;5071913;28;20205;-62
2021/03/22 05:12:04;;;;;;;17.90;3.67;;;6.70;93.30;;;;;;5072416;28;20540;-62
2021/03/22 05:14:30;;;;;;;13.07;2.90;;;6.70;93.20;;;;;;5072421;28;20198;-62
2021/03/22 05:16:56;;;;;;;13.57;3.53;;;6.80;93.20;;;;;;5072016;28;20198;-61
2021/03/22 05:19:23;;;;;;;15.70;3.60;;;6.80;92.90;;;;;;5071234;28;20224;-62
2021/03/22 05:21:50;;;;;;;17.27;3.10;;;6.80;92.80;;;;;;5072343;28;20201;-61
2021/03/22 05:24:16;;;;;;;14.03;3.50;;;6.80;92.80;;;;;;5071225;28;20204;-61
2021/03/22 05:26:43;;;;;;;40.43;18.53;;;6.80;92.60;;;;;;5071175;28;20233;-61
2021/03/22 05:29:09;;;;;;;12.03;3.10;;;6.80;92.60;;;;;;5071092;28;20586;-61
2021/03/22 05:31:37;;;;;;;13.00;3.73;;;6.80;92.60;;;;;;5071394;28;20213;-61
2021/03/22 05:34:03;;;;;;;12.90;3.80;;;6.80;92.30;;;;;;5071647;28;20299;-61
2021/03/22 05:36:30;;;;;;;12.73;3.60;;;6.80;92.60;;;;;;5071927;28;20224;-61
2021/03/22 05:38:57;;;;;;;17.17;3.43;;;6.80;92.50;;;;;;5072091;28;20209;-61
2021/03/22 05:41:27;;;;;;;13.20;3.70;;;6.80;92.50;;;;;;5071972;28;20205;-61
2021/03/22 05:44:03;;;;;;;14.77;3.67;;;6.90;92.60;;;;;;5072019;28;20213;-63
2021/03/22 05:46:50;;;;;;;11.60;3.53;;;6.90;92.60;;;;;;5071947;28;20615;-61
2021/03/22 05:49:31;;;;;;;12.03;3.77;;;6.90;92.60;;;;;;5071910;28;20212;-61
2021/03/22 05:52:28;;;;;;;12.53;3.27;;;6.90;92.40;;;;;;5072363;28;20209;-62
2021/03/22 05:55:25;;;;;;;9.67;3.10;;;6.80;92.40;;;;;;5047284;28;20458;-62
2021/03/22 05:58:10;;;;;;;13.57;3.43;;;6.80;92.30;;;;;;5065094;28;20267;-62
2021/03/22 06:00:53;;;;;;;13.60;2.57;;;6.70;92.40;;;;;;5076287;28;20213;-61
2021/03/22 06:03:27;;;;;;;10.00;2.57;;;6.60;92.50;;;;;;5075649;28;20201;-61
2021/03/22 06:06:01;;;;;;;10.83;3.00;;;6.60;92.50;;;;;;5074445;28;20228;-61
2021/03/22 06:08:38;;;;;;;12.53;3.30;;;6.50;92.60;;;;;;5075115;28;20212;-62
2021/03/22 06:11:15;;;;;;;13.40;3.33;;;6.40;92.80;;;;;;5075364;28;20208;-62
2021/03/22 06:13:47;;;;;;;13.00;3.87;;;6.40;93.00;;;;;;5074708;28;20581;-62
2021/03/22 06:16:23;;;;;;;11.73;3.13;;;6.50;93.10;;;;;;5075062;28;20221;-62
2021/03/22 06:18:56;;;;;;;10.87;3.30;;;6.50;93.00;;;;;;5074493;28;20664;-62
2021/03/22 06:21:24;;;;;;;11.03;3.10;;;6.40;93.20;;;;;;5074781;28;20723;-63
2021/03/22 06:23:50;;;;;;;10.70;2.83;;;6.50;93.30;;;;;;5075047;28;20258;-62
2021/03/22 06:26:32;;;;;;;14.00;3.63;;;6.40;93.20;;;;;;5074489;28;20318;-62
2021/03/22 06:29:02;;;;;;;33.17;16.47;;;6.50;93.20;;;;;;5074631;28;20225;-62
2021/03/22 06:31:28;;;;;;;11.30;2.77;;;6.40;93.20;;;;;;5074747;28;20204;-62
2021/03/22 06:34:01;;;;;;;14.83;3.00;;;6.50;93.10;;;;;;5074847;28;20209;-61
2021/03/22 06:36:27;;;;;;;12.03;3.03;;;6.40;93.00;;;;;;5074644;28;20225;-61
2021/03/22 06:38:56;;;;;;;14.63;3.20;;;6.40;93.10;;;;;;5074570;28;20205;-63
2021/03/22 06:41:35;;;;;;;15.53;3.10;;;6.40;93.30;;;;;;5074263;28;20209;-61
2021/03/22 06:44:06;;;;;;;12.63;2.90;;;6.50;93.20;;;;;;5073885;28;20266;-61
2021/03/22 06:46:32;;;;;;;10.60;3.57;;;6.50;93.10;;;;;;5073898;28;20240;-61
2021/03/22 06:49:01;;;;;;;13.57;3.57;;;6.50;93.50;;;;;;5074433;28;20204;-62
2021/03/22 06:51:27;;;;;;;16.60;3.97;;;6.60;93.20;;;;;;5074553;28;20204;-62
2021/03/22 06:53:58;;;;;;;14.97;3.30;;;6.60;93.30;;;;;;5073849;28;20672;-63
2021/03/22 06:56:26;;;;;;;17.77;3.80;;;6.60;93.50;;;;;;5073708;28;20231;-62
2021/03/22 06:59:12;;;;;;;13.00;3.63;;;6.70;93.50;;;;;;5073404;28;20209;-62
2021/03/22 07:01:39;;;;;;;21.03;4.30;;;6.90;93.50;;;;;;5073650;28;20513;-62
2021/03/22 07:04:23;;;;;;;14.07;3.70;;;7.10;93.40;;;;;;5073494;28;20208;-62
2021/03/22 07:07:08;;;;;;;11.43;2.90;;;7.30;93.40;;;;;;5072585;28;20754;-56
2021/03/22 07:09:37;;;;;;;19.27;3.53;;;7.50;92.90;;;;;;5051635;28;20197;-57
2021/03/22 07:12:06;;;;;;;17.83;4.20;;;7.60;93.10;;;;;;5052754;28;20220;-56
2021/03/22 07:14:33;;;;;;;16.30;3.43;;;7.60;93.10;;;;;;5052373;28;20205;-59
2021/03/22 07:17:07;;;;;;;16.20;3.77;;;7.70;93.30;;;;;;5052987;28;20399;-58
2021/03/22 07:19:34;;;;;;;19.17;3.53;;;7.80;93.50;;;;;;5052717;28;20738;-58
2021/03/22 07:22:04;;;;;;;12.07;3.40;;;7.70;93.50;;;;;;5052109;28;20580;-59
2021/03/22 07:24:40;;;;;;;18.17;3.37;;;7.80;93.60;;;;;;5051922;28;20251;-56
2021/03/22 07:27:21;;;;;;;14.40;3.90;;;7.90;93.00;;;;;;5052634;28;20697;-55
2021/03/22 07:30:16;;;;;;;15.00;3.63;;;7.90;93.00;;;;;;5052422;28;20205;-56
2021/03/22 07:32:52;;;;;;;10.33;3.30;;;7.70;92.90;;;;;;5052663;28;20233;-60
2021/03/22 07:35:44;;;;;;;17.93;4.23;;;7.50;93.40;;;;;;5052723;28;20221;-61
2021/03/22 07:38:16;;;;;;;13.73;3.70;;;7.60;93.60;;;;;;5045445;28;20232;-62
2021/03/22 07:40:50;;;;;;;12.43;3.40;;;8.00;93.20;;;;;;5052551;28;20212;-61
2021/03/22 07:43:34;;;;;;;17.00;3.80;;;8.10;93.10;;;;;;5052668;28;20216;-61
2021/03/22 07:46:08;;;;;;;15.80;5.87;;;8.30;93.20;;;;;;5052455;28;20255;-61
2021/03/22 07:48:59;;;;;;;15.10;4.43;;;8.40;93.20;;;;;;5052591;28;20213;-61
2021/03/22 07:52:06;;;;;;;17.03;4.30;;;8.50;92.90;;;;;;5051824;28;20209;-60
2021/03/22 07:54:45;;;;;;;15.93;4.57;;;8.60;93.00;;;;;;5052333;28;20205;-61
2021/03/22 07:57:22;;;;;;;17.00;4.10;;;8.70;92.90;;;;;;5052456;28;20197;-63
2021/03/22 07:59:59;;;;;;;18.50;4.23;;;8.80;92.90;;;;;;5052180;28;20213;-63
2021/03/22 08:02:55;;;;;;;17.90;4.63;;;8.80;92.70;;;;;;5052648;28;20209;-63
2021/03/22 08:05:25;;;;;;;18.30;4.77;;;8.80;92.90;;;;;;5052401;28;20233;-63
2021/03/22 08:07:59;;;;;;;16.43;5.33;;;8.90;92.50;;;;;;5052698;28;20205;-62
2021/03/22 08:10:39;;;;;;;17.93;4.33;;;9.00;92.50;;;;;;5052625;28;20254;-63
2021/03/22 08:13:23;;;;;;;16.17;4.70;;;9.00;92.60;;;;;;5052699;28;20217;-63
2021/03/22 08:15:59;;;;;;;19.97;4.00;;;9.10;92.70;;;;;;5052099;28;20261;-62
2021/03/22 08:18:31;;;;;;;11.87;3.67;;;9.00;92.20;;;;;;5052367;28;20212;-62
2021/03/22 08:21:05;;;;;;;9.13;3.50;;;8.90;92.10;;;;;;5051662;28;20267;-62
2021/03/22 08:23:43;;;;;;;11.20;3.20;;;8.90;91.60;;;;;;5052032;28;20212;-63
2021/03/22 08:26:16;;;;;;;10.50;2.57;;;9.00;91.50;;;;;;5051675;28;20596;-63
2021/03/22 08:28:58;;;;;;;28.50;4.30;;;9.30;91.10;;;;;;5051721;28;20579;-63
2021/03/22 08:31:30;;;;;;;16.23;4.13;;;9.50;90.80;;;;;;5052070;28;20206;-63
2021/03/22 08:34:13;;;;;;;11.73;3.63;;;9.80;90.10;;;;;;5052031;28;20213;-63
2021/03/22 08:36:49;;;;;;;14.77;3.90;;;9.70;90.30;;;;;;5051274;28;20225;-63
2021/03/22 08:39:24;;;;;;;10.80;2.90;;;9.90;89.80;;;;;;5051379;28;20582;-63
2021/03/22 08:41:59;;;;;;;11.93;3.60;;;9.90;89.00;;;;;;5052099;28;20209;-63
2021/03/22 08:44:29;;;;;;;10.17;2.70;;;9.90;89.10;;;;;;5051587;28;20210;-63
2021/03/22 08:47:05;;;;;;;8.40;3.10;;;9.80;89.30;;;;;;5051365;28;20229;-63
2021/03/22 08:49:44;;;;;;;10.07;2.80;;;9.60;89.90;;;;;;5051274;28;20208;-63
2021/03/22 08:52:18;;;;;;;11.83;2.90;;;9.40;90.30;;;;;;5051596;28;20590;-65
2021/03/22 08:54:45;;;;;;;7.70;2.60;;;9.20;90.60;;;;;;5051235;28;20225;-63
2021/03/22 08:57:23;;;;;;;10.90;2.90;;;9.00;90.80;;;;;;5051235;28;20693;-63
2021/03/22 08:59:50;;;;;;;12.63;3.17;;;8.80;91.00;;;;;;5051033;28;20206;-63
2021/03/22 09:02:24;;;;;;;15.27;3.60;;;8.70;91.50;;;;;;5051293;28;20213;-63
2021/03/22 09:07:30;;;;;;;10.90;3.20;;;9.30;91.30;;;;;;5085768;22;20324;-61
2021/03/22 09:10:32;;;;;;;10.77;2.87;;;9.50;90.60;;;;;;5070863;28;20208;-62
2021/03/22 09:13:21;;;;;;;16.43;3.43;;;9.70;90.80;;;;;;5064402;28;20209;-62
2021/03/22 09:16:13;;;;;;;13.47;3.07;;;10.00;90.30;;;;;;5071200;28;20236;-62
2021/03/22 09:19:24;;;;;;;8.80;2.87;;;10.50;89.20;;;;;;5071201;28;20205;-61
2021/03/22 09:21:54;;;;;;;8.03;2.70;;;10.50;87.70;;;;;;5071328;28;20205;-61
2021/03/22 09:24:46;;;;;;;9.33;2.70;;;10.40;87.60;;;;;;5071191;28;20817;-61
2021/03/22 09:27:29;;;;;;;10.87;2.90;;;10.20;87.40;;;;;;5070644;28;20327;-60
2021/03/22 09:30:31;;;;;;;7.43;2.53;;;9.70;90.20;;;;;;5070975;28;20208;-61
2021/03/22 09:32:58;;;;;;;12.97;3.23;;;9.30;90.70;;;;;;5071566;28;20200;-61
2021/03/22 09:36:03;;;;;;;12.17;2.50;;;9.20;90.80;;;;;;5074625;28;20754;-62
2021/03/22 09:38:49;;;;;;;12.53;3.00;;;9.20;91.00;;;;;;5074918;28;20205;-61
2021/03/22 09:41:16;;;;;;;11.47;3.20;;;9.10;91.20;;;;;;5071412;28;20676;-62
2021/03/22 09:43:49;;;;;;;11.40;3.07;;;8.80;92.00;;;;;;5074656;28;20201;-62
2021/03/22 09:46:25;;;;;;;11.10;3.07;;;8.70;92.30;;;;;;5074749;28;20289;-62
2021/03/22 09:49:24;;;;;;;18.27;8.33;;;8.60;92.90;;;;;;5074572;28;20204;-62
2021/03/22 09:51:57;;;;;;;11.20;3.63;;;8.50;93.30;;;;;;5074482;28;20208;-62
2021/03/22 09:54:33;;;;;;;11.43;3.33;;;8.70;93.40;;;;;;5074462;28;20213;-62
2021/03/22 09:57:28;;;;;;;11.57;3.20;;;9.10;92.60;;;;;;5074507;28;20243;-62
2021/03/22 10:00:31;;;;;;;11.93;3.43;;;9.50;91.70;;;;;;5074045;28;20231;-62
2021/03/22 10:02:59;;;;;;;12.40;3.77;;;9.90;91.20;;;;;;5060692;28;20721;-62
2021/03/22 10:05:30;;;;;;;7.20;2.50;;;10.50;89.60;;;;;;5073779;28;20232;-62
2021/03/22 10:08:04;;;;;;;6.60;2.43;;;10.80;86.90;;;;;;5073614;28;20229;-62
2021/03/22 10:10:36;;;;;;;11.13;2.97;;;10.90;84.70;;;;;;5070724;28;20434;-62
2021/03/22 10:13:09;;;;;;;11.53;2.80;;;10.70;85.60;;;;;;5073573;28;20201;-61
2021/03/22 10:15:46;;;;;;;6.17;2.47;;;10.50;85.00;;;;;;5073799;28;20320;-61
2021/03/22 10:18:21;;;;;;;11.50;2.97;;;10.40;85.10;;;;;;5074032;28;20218;-62
2021/03/22 10:20:51;;;;;;;8.77;2.63;;;10.30;85.10;;;;;;5073810;28;20204;-61
2021/03/22 10:23:25;;;;;;;7.67;2.43;;;10.10;85.60;;;;;;5073879;28;20290;-61
2021/03/22 10:26:00;;;;;;;7.47;2.80;;;9.80;88.10;;;;;;5073842;28;20225;-61
2021/03/22 10:28:27;;;;;;;8.10;2.93;;;9.60;89.10;;;;;;5073792;28;20204;-61
2021/03/22 10:30:58;;;;;;;9.47;2.77;;;9.20;89.90;;;;;;5074089;28;20209;-61
2021/03/22 10:33:24;;;;;;;18.67;3.37;;;9.00;90.20;;;;;;5073603;28;20296;-61
2021/03/22 10:35:53;;;;;;;11.90;3.17;;;8.90;90.40;;;;;;5074064;28;20225;-61
2021/03/22 10:38:22;;;;;;;26.80;4.47;;;8.90;90.80;;;;;;5073718;28;20209;-62
2021/03/22 10:40:49;;;;;;;12.17;2.83;;;8.90;90.80;;;;;;5073557;28;20627;-61
2021/03/22 10:43:32;;;;;;;8.27;2.50;;;8.90;90.50;;;;;;5073668;28;20663;-61
2021/03/22 10:46:13;;;;;;;13.80;2.87;;;8.80;90.70;;;;;;5073170;28;20225;-61
2021/03/22 10:48:39;;;;;;;7.43;2.67;;;8.80;90.70;;;;;;5073475;28;20209;-61
2021/03/22 10:51:12;;;;;;;8.10;2.50;;;8.90;90.60;;;;;;5072976;28;20617;-61
2021/03/22 10:53:53;;;;;;;8.07;2.87;;;9.00;90.80;;;;;;5073136;28;20636;-62
2021/03/22 10:56:22;;;;;;;7.73;2.70;;;9.10;90.50;;;;;;5073628;28;20220;-62
2021/03/22 10:58:50;;;;;;;9.23;2.50;;;9.30;90.30;;;;;;5072921;28;20205;-62
2021/03/22 11:01:19;;;;;;;9.63;2.80;;;9.50;90.10;;;;;;5073243;28;20205;-61
2021/03/22 11:03:49;;;;;;;6.57;2.40;;;9.50;90.00;;;;;;5073010;28;20675;-63
2021/03/22 11:06:28;;;;;;;7.10;2.23;;;9.60;90.00;;;;;;5073104;28;20551;-62
2021/03/22 11:08:57;;;;;;;10.40;2.87;;;9.60;90.10;;;;;;5073078;28;20287;-62
2021/03/22 11:11:24;;;;;;;8.70;2.60;;;9.70;90.40;;;;;;5073195;28;20215;-61
2021/03/22 11:13:54;;;;;;;8.20;2.80;;;10.00;88.60;;;;;;5073479;28;20217;-61
2021/03/22 11:16:25;;;;;;;6.57;2.07;;;10.20;87.40;;;;;;5072471;28;20601;-60
2021/03/22 11:18:52;;;;;;;20.07;3.73;;;10.30;87.40;;;;;;5072887;28;20614;-62
2021/03/22 11:21:20;;;;;;;10.73;2.47;;;10.50;87.20;;;;;;5072612;28;20204;-62
2021/03/22 11:23:46;;;;;;;7.53;2.60;;;10.60;87.20;;;;;;5072589;28;20209;-64
2021/03/22 11:26:17;;;;;;;6.77;2.27;;;10.90;85.40;;;;;;5072931;28;20588;-62
2021/03/22 11:28:44;;;;;;;10.37;2.97;;;11.10;85.50;;;;;;5072845;28;20189;-61
2021/03/22 11:31:20;;;;;;;8.93;2.60;;;11.20;84.80;;;;;;5072768;28;20224;-60
2021/03/22 11:33:59;;;;;;;7.37;2.57;;;11.30;84.20;;;;;;5072589;28;20200;-61
2021/03/22 11:36:36;;;;;;;11.33;4.77;;;11.60;83.60;;;;;;5072352;28;20220;-61
2021/03/22 11:39:12;;;;;;;8.53;2.60;;;11.80;83.60;;;;;;5072272;28;20628;-61
2021/03/22 11:41:41;;;;;;;3.87;2.13;;;12.20;81.80;;;;;;5073109;28;20558;-61
2021/03/22 11:44:19;;;;;;;6.10;2.10;;;12.60;80.10;;;;;;5072359;28;20282;-61
2021/03/22 11:46:48;;;;;;;6.97;2.20;;;12.50;78.80;;;;;;5071961;28;20224;-61
2021/03/22 11:49:39;;;;;;;6.40;1.90;;;12.40;78.80;;;;;;5072196;28;20398;-60
2021/03/22 11:52:17;;;;;;;7.03;1.90;;;12.20;79.90;;;;;;5072770;28;20213;-60
2021/03/22 11:54:52;;;;;;;5.53;2.13;;;12.00;80.00;;;;;;5072475;28;20212;-60
2021/03/22 11:57:22;;;;;;;10.47;2.50;;;11.60;80.90;;;;;;5071454;28;20295;-60
2021/03/22 11:59:50;;;;;;;6.93;2.53;;;11.20;82.80;;;;;;5072514;28;20205;-60
2021/03/22 12:02:31;;;;;;;11.90;2.50;;;10.80;84.10;;;;;;5072106;28;20219;-60
2021/03/22 12:05:00;;;;;;;9.50;2.70;;;10.60;85.20;;;;;;5071341;28;20205;-62
2021/03/22 12:07:36;;;;;;;7.67;3.53;;;10.40;85.70;;;;;;5073110;28;20229;-61
2021/03/22 12:10:04;;;;;;;10.13;2.70;;;10.20;86.50;;;;;;5072114;28;20201;-59
2021/03/22 12:12:30;;;;;;;7.83;2.47;;;10.20;87.00;;;;;;5071902;28;20699;-61
2021/03/22 12:14:57;;;;;;;56.63;7.63;;;10.30;86.80;;;;;;5071597;28;20232;-59
2021/03/22 12:17:28;;;;;;;33.00;4.67;;;10.30;86.10;;;;;;5071751;28;20703;-61
2021/03/22 12:19:54;;;;;;;6.30;2.10;;;10.20;86.30;;;;;;5071542;28;20593;-60
2021/03/22 12:22:23;;;;;;;8.07;2.63;;;10.10;86.90;;;;;;5071151;28;20215;-61
2021/03/22 12:24:52;;;;;;;43.70;6.57;;;10.00;87.40;;;;;;5072228;28;20205;-62
2021/03/22 12:27:20;;;;;;;38.83;6.03;;;9.90;89.30;;;;;;5072936;28;20315;-63
2021/03/22 12:29:47;;;;;;;9.47;2.77;;;10.00;88.40;;;;;;5072068;28;20291;-63
2021/03/22 12:32:16;;;;;;;29.50;4.10;;;10.10;88.30;;;;;;5072668;28;20591;-62
2021/03/22 12:34:44;;;;;;;9.60;2.77;;;10.30;88.80;;;;;;5072043;28;20349;-63
2021/03/22 12:37:22;;;;;;;6.83;2.60;;;10.70;87.40;;;;;;5072386;28;20319;-64
2021/03/22 12:39:48;;;;;;;46.63;5.57;;;11.10;85.90;;;;;;5072571;28;20684;-62
2021/03/22 12:42:15;;;;;;;35.90;5.83;;;11.20;85.90;;;;;;5071726;28;20201;-62
2021/03/22 12:44:41;;;;;;;19.70;3.67;;;11.30;85.30;;;;;;5072222;28;20217;-63
2021/03/22 12:47:10;;;;;;;10.27;2.90;;;11.50;84.70;;;;;;5071418;28;20312;-63
2021/03/22 12:49:36;;;;;;;9.73;2.70;;;11.70;83.50;;;;;;5072152;28;20556;-63
2021/03/22 12:52:04;;;;;;;8.53;2.70;;;11.80;83.60;;;;;;5072347;28;20502;-63
2021/03/22 12:54:30;;;;;;;7.90;3.10;;;11.80;83.60;;;;;;5071677;28;20247;-62
2021/03/22 12:56:56;;;;;;;9.53;2.40;;;11.70;82.60;;;;;;5071555;28;20603;-63
2021/03/22 12:59:32;;;;;;;11.03;2.70;;;11.70;83.00;;;;;;5071890;28;20692;-63
2021/03/22 13:01:59;;;;;;;8.67;2.50;;;11.70;84.10;;;;;;5071696;28;20636;-63
2021/03/22 13:04:27;;;;;;;7.57;2.40;;;11.50;84.10;;;;;;5071758;28;20201;-63
2021/03/22 13:06:53;;;;;;;8.90;3.10;;;11.40;84.30;;;;;;5071478;28;20611;-63
2021/03/22 13:09:20;;;;;;;9.20;2.63;;;11.20;84.80;;;;;;5072013;28;20213;-64
2021/03/22 13:11:47;;;;;;;6.90;2.50;;;11.20;85.20;;;;;;5072441;28;20469;-63
2021/03/22 13:14:16;;;;;;;5.67;2.60;;;11.00;86.10;;;;;;5072357;28;20204;-63